createdAt,value
2023-04-18T08:24:28.212Z,100106.56
2023-04-18T08:26:31.018Z,100106.56
2023-04-18T08:28:33.391Z,100016.16
2023-04-18T08:30:35.977Z,99996.94
2023-04-18T08:32:39.097Z,99982.31
2023-04-18T08:34:41.996Z,99966.19
2023-04-18T08:36:44.321Z,99958.03
2023-04-18T08:38:47.672Z,99943.56
2023-04-18T08:40:50.043Z,99975.63
2023-04-18T08:42:53.340Z,99953.16
2023-04-18T08:44:56.118Z,99990.62
2023-04-18T08:47:00.253Z,100052.12
2023-04-18T08:49:04.733Z,100071.41
2023-04-18T08:51:07.383Z,100082.72
2023-04-18T08:53:10.665Z,100129.09
2023-04-18T08:55:13.062Z,100125.00
2023-04-18T08:57:16.953Z,100163.25
2023-04-18T08:59:20.564Z,100119.75
2023-04-18T09:01:23.124Z,100238.78
2023-04-18T09:03:40.638Z,100389.69
2023-04-18T09:05:43.154Z,100459.09
2023-04-18T09:07:46.944Z,100467.50
2023-04-18T09:09:51.709Z,100489.28
2023-04-18T09:12:11.232Z,100491.81
2023-04-18T09:14:36.740Z,100475.19
2023-04-18T09:16:47.211Z,100480.44
2023-04-18T09:19:08.744Z,100465.78
2023-04-18T09:21:20.982Z,100464.47
2023-04-18T09:23:24.566Z,100475.31
2023-04-18T09:25:34.924Z,100470.69
2023-04-18T09:27:37.529Z,100467.59
2023-04-18T09:29:46.727Z,100470.75
2023-04-18T09:32:02.086Z,100483.94
2023-04-18T09:34:05.272Z,100465.88
2023-04-18T09:36:21.683Z,100459.47
2023-04-18T09:38:41.099Z,100456.94
2023-04-18T09:40:43.576Z,100430.06
2023-04-18T09:42:48.105Z,100446.84
2023-04-18T09:44:59.638Z,100439.81
2023-04-18T09:47:02.387Z,100425.47
2023-04-18T09:49:05.338Z,100429.19
2023-04-18T09:51:10.865Z,100421.41
2023-04-18T09:53:20.631Z,100400.38
2023-04-18T09:55:23.830Z,100408.28
2023-04-18T09:57:28.869Z,100418.38
2023-04-18T09:59:47.620Z,100405.38
2023-04-18T10:01:51.446Z,100411.53
2023-04-18T10:03:56.360Z,100402.97
2023-04-18T10:05:58.852Z,100410.50
2023-04-18T10:08:01.326Z,100423.00
2023-04-18T10:10:04.344Z,100428.62
2023-04-18T10:12:06.962Z,100436.50
2023-04-18T10:14:12.968Z,100435.72
2023-04-18T10:16:17.134Z,100436.13
2023-04-18T10:18:23.354Z,100448.56
2023-04-18T10:20:27.678Z,100440.31
2023-04-18T10:22:30.852Z,100438.47
2023-04-18T10:24:49.809Z,100441.31
2023-04-18T10:26:52.328Z,100441.09
2023-04-18T10:28:59.090Z,100449.91
2023-04-18T10:31:05.702Z,100468.75
2023-04-18T10:35:29.805Z,100484.59
2023-04-18T10:37:33.462Z,100497.72
2023-04-18T10:39:58.392Z,100475.72
2023-04-18T10:42:01.308Z,100469.47
2023-04-18T10:44:16.211Z,100483.75
2023-04-18T10:46:30.971Z,100480.97
2023-04-18T10:51:12.245Z,100486.50
2023-04-18T10:53:14.620Z,100474.03
2023-04-18T10:55:26.288Z,100454.69
2023-04-18T10:57:49.240Z,100479.81
2023-04-18T10:59:52.531Z,100485.09
2023-04-18T11:02:10.523Z,100479.97
2023-04-18T11:04:14.258Z,100490.56
2023-04-18T11:06:16.858Z,100493.19
2023-04-18T11:08:24.302Z,100491.50
2023-04-18T11:10:27.684Z,100488.13
2023-04-18T11:12:35.543Z,100498.13
2023-04-18T11:14:43.181Z,100507.87
2023-04-18T11:16:45.599Z,100513.44
2023-04-18T11:18:47.921Z,100507.56
2023-04-18T11:20:51.650Z,100482.75
2023-04-18T11:22:56.994Z,100489.97
2023-04-18T11:25:00.980Z,100510.66
2023-04-18T11:27:04.303Z,100530.12
2023-04-18T11:29:06.741Z,100524.03
2023-04-18T11:31:09.138Z,100503.56
2023-04-18T11:33:13.048Z,100491.97
2023-04-18T11:35:16.481Z,100503.41
2023-04-18T11:37:19.156Z,100499.91
2023-04-18T11:39:22.702Z,100498.16
2023-04-18T11:41:25.065Z,100487.75
2023-04-18T11:43:27.411Z,100500.22
2023-04-18T11:45:30.226Z,100488.06
2023-04-18T11:47:34.436Z,100488.47
2023-04-18T11:49:36.821Z,100468.34
2023-04-18T11:51:39.634Z,100468.97
2023-04-18T11:53:41.905Z,100476.28
2023-04-18T11:55:54.719Z,100468.19
2023-04-18T11:57:58.839Z,100462.72
2023-04-18T12:00:01.654Z,100462.56
2023-04-18T12:02:15.573Z,100464.13
2023-04-18T12:04:20.052Z,100454.66
2023-04-18T12:06:22.975Z,100441.72
2023-04-18T12:08:26.887Z,100439.72
2023-04-18T12:10:30.174Z,100436.38
2023-04-18T12:12:32.640Z,100459.16
2023-04-18T12:14:36.178Z,100465.81
2023-04-18T12:16:38.998Z,100468.22
2023-04-18T12:18:41.960Z,100472.94
2023-04-18T12:20:54.262Z,100477.59
2023-04-18T12:22:57.796Z,100494.25
2023-04-18T12:25:30.031Z,100500.69
2023-04-18T12:27:52.315Z,100502.03
2023-04-18T12:29:54.968Z,100514.16
2023-04-18T12:31:57.363Z,100504.28
2023-04-18T12:34:00.582Z,100504.69
2023-04-18T12:36:05.426Z,100508.69
2023-04-18T12:38:07.807Z,100499.91
2023-04-18T12:40:11.066Z,100498.63
2023-04-18T12:42:13.815Z,100490.84
2023-04-18T12:44:16.174Z,100497.25
2023-04-18T12:46:18.719Z,100487.94
2023-04-18T12:48:21.360Z,100488.63
2023-04-18T12:50:25.636Z,100479.53
2023-04-18T12:52:28.221Z,100475.47
2023-04-18T12:54:30.904Z,100506.66
2023-04-18T12:56:33.212Z,100503.56
2023-04-18T12:58:36.007Z,100512.06
2023-04-18T13:00:38.642Z,100517.94
2023-04-18T13:02:44.134Z,100520.16
2023-04-18T13:04:46.646Z,100541.59
2023-04-18T13:06:49.333Z,100537.31
2023-04-18T13:08:51.813Z,100540.66
2023-04-18T13:10:54.201Z,100555.87
2023-04-18T13:12:56.938Z,100566.50
2023-04-18T13:14:59.299Z,100580.78
2023-04-18T13:17:01.758Z,100588.09
2023-04-18T13:19:04.420Z,100599.84
2023-04-18T13:21:06.897Z,100593.59
2023-04-18T13:23:09.205Z,100600.16
2023-04-18T13:25:12.066Z,100580.69
2023-04-18T13:27:15.121Z,100593.78
2023-04-18T13:29:17.473Z,100590.66
2023-04-18T13:31:20.132Z,100594.03
2023-04-18T13:33:22.491Z,100594.03
2023-04-18T13:35:24.894Z,100591.56
2023-04-18T13:37:27.457Z,100597.25
2023-04-18T13:39:32.255Z,100585.50
2023-04-18T13:41:35.443Z,100595.38
2023-04-18T13:43:38.046Z,100597.06
2023-04-18T13:45:40.362Z,100575.28
2023-04-18T13:47:42.806Z,100577.72
2023-04-18T13:49:45.793Z,100570.09
2023-04-18T13:51:48.150Z,100566.72
2023-04-18T13:53:51.676Z,100565.91
2023-04-18T13:55:54.231Z,100572.66
2023-04-18T13:57:56.869Z,100578.88
2023-04-18T13:59:59.149Z,100585.13
2023-04-18T14:02:01.874Z,100579.66
2023-04-18T14:04:04.950Z,100582.31
2023-04-18T14:06:07.514Z,100582.28
2023-04-18T14:08:09.948Z,100581.81
2023-04-18T14:10:12.650Z,100592.22
2023-04-18T14:12:15.125Z,100580.28
2023-04-18T14:14:17.504Z,100585.06
2023-04-18T14:16:20.201Z,100587.97
2023-04-18T14:18:23.643Z,100575.38
2023-04-18T14:20:26.622Z,100573.50
2023-04-18T14:22:29.365Z,100577.16
2023-04-18T14:24:31.681Z,100578.34
2023-04-18T14:26:33.911Z,100581.12
2023-04-18T14:28:36.869Z,100581.16
2023-04-18T14:30:39.952Z,100574.31
2023-04-18T14:32:42.322Z,100579.50
2023-04-18T14:34:45.153Z,100571.44
2023-04-18T14:36:47.436Z,100576.69
2023-04-18T14:38:50.261Z,100572.31
2023-04-18T14:40:52.789Z,100578.34
2023-04-18T14:42:55.185Z,100582.84
2023-04-18T14:44:57.420Z,100559.09
2023-04-18T14:47:00.202Z,100561.84
2023-04-18T14:49:02.475Z,100567.22
2023-04-18T14:51:04.771Z,100575.97
2023-04-18T14:53:07.910Z,100578.03
2023-04-18T14:55:10.937Z,100564.78
2023-04-18T14:57:13.312Z,100561.47
2023-04-18T14:59:17.113Z,100552.31
2023-04-18T15:01:19.550Z,100552.37
2023-04-18T15:03:22.043Z,100547.94
2023-04-18T15:05:24.814Z,100530.44
2023-04-18T15:07:27.097Z,100525.44
2023-04-18T15:09:29.669Z,100534.97
2023-04-18T15:11:32.297Z,100535.13
2023-04-18T15:13:34.980Z,100524.63
2023-04-18T15:15:38.007Z,100533.19
2023-04-18T15:17:40.871Z,100536.81
2023-04-18T15:19:43.256Z,100534.38
2023-04-18T15:21:45.571Z,100538.09
2023-04-18T15:23:48.173Z,100519.88
2023-04-18T15:25:50.535Z,100518.47
2023-04-18T15:27:53.285Z,100510.38
2023-04-18T15:29:56.608Z,100514.84
2023-04-18T15:31:59.256Z,100522.97
2023-04-18T15:34:01.639Z,100522.66
2023-04-18T15:36:04.501Z,100506.19
2023-04-18T15:38:06.836Z,100503.31
2023-04-18T15:40:11.321Z,100504.53
2023-04-18T15:42:13.930Z,100499.53
2023-04-18T15:44:16.276Z,100494.84
2023-04-18T15:46:18.762Z,100497.28
2023-04-18T15:48:21.493Z,100499.41
2023-04-18T15:50:24.279Z,100485.59
2023-04-18T15:52:26.788Z,100493.72
2023-04-18T15:54:29.450Z,100488.47
2023-04-18T15:56:33.591Z,100498.28
2023-04-18T15:58:36.309Z,100507.16
2023-04-18T16:00:39.932Z,100507.06
2023-04-18T16:02:44.075Z,100503.38
2023-04-18T16:04:46.637Z,100509.41
2023-04-18T16:06:49.091Z,100494.69
2023-04-18T16:08:51.725Z,100505.41
2023-04-18T16:10:54.067Z,100507.34
2023-04-18T16:12:56.491Z,100498.19
2023-04-18T16:14:59.181Z,100501.91
2023-04-18T16:17:01.769Z,100504.81
2023-04-18T16:19:05.483Z,100506.94
2023-04-18T16:21:08.132Z,100499.62
2023-04-18T16:23:10.487Z,100502.19
2023-04-18T16:25:14.516Z,100512.78
2023-04-18T16:27:17.203Z,100510.66
2023-04-18T16:29:19.525Z,100506.81
2023-04-18T16:31:22.426Z,100517.12
2023-04-18T16:33:26.171Z,100514.87
2023-04-18T16:35:29.168Z,100505.50
2023-04-18T16:37:31.550Z,100509.34
2023-04-18T16:39:34.193Z,100510.56
2023-04-18T16:41:37.702Z,100511.50
2023-04-18T16:43:40.372Z,100512.94
2023-04-18T16:45:43.238Z,100500.34
2023-04-18T16:47:45.760Z,100503.34
2023-04-18T16:49:48.040Z,100502.88
2023-04-18T16:51:51.651Z,100508.28
2023-04-18T16:53:54.495Z,100508.03
2023-04-18T16:55:56.793Z,100515.37
2023-04-18T16:57:59.716Z,100513.72
2023-04-18T17:00:03.096Z,100504.22
2023-04-18T17:02:05.775Z,100505.78
2023-04-18T17:04:08.998Z,100517.78
2023-04-18T17:06:11.468Z,100522.56
2023-04-18T17:08:14.062Z,100508.91
2023-04-18T17:10:18.796Z,100515.59
2023-04-18T17:12:21.685Z,100518.94
2023-04-18T17:14:24.298Z,100511.66
2023-04-18T17:16:27.295Z,100509.94
2023-04-18T17:18:29.790Z,100501.56
2023-04-18T17:20:32.919Z,100513.31
2023-04-18T17:22:38.944Z,100505.28
2023-04-18T17:24:41.883Z,100507.53
2023-04-18T17:26:46.435Z,100521.53
2023-04-18T17:28:49.642Z,100508.59
2023-04-18T17:30:52.637Z,100511.59
2023-04-18T17:32:55.432Z,100497.06
2023-04-18T17:35:04.310Z,100505.59
2023-04-18T17:37:06.980Z,100511.37
2023-04-18T17:39:10.447Z,100526.34
2023-04-18T17:41:13.685Z,100523.47
2023-04-18T17:43:16.604Z,100518.28
2023-04-18T17:45:21.012Z,100500.69
2023-04-18T17:47:23.673Z,100510.25
2023-04-18T17:49:31.057Z,100519.63
2023-04-18T17:51:34.236Z,100515.31
2023-04-18T17:53:37.607Z,100526.09
2023-04-18T17:55:41.990Z,100520.81
2023-04-18T17:57:45.280Z,100528.50
2023-04-18T17:59:47.996Z,100521.41
2023-04-18T18:01:51.960Z,100538.84
2023-04-18T18:03:56.307Z,100528.37
2023-04-18T18:05:59.101Z,100530.84
2023-04-18T18:08:02.249Z,100517.66
2023-04-18T18:10:07.105Z,100519.81
2023-04-18T18:12:12.710Z,100531.81
2023-04-18T18:14:17.286Z,100541.03
2023-04-18T18:16:21.734Z,100528.22
2023-04-18T18:18:25.747Z,100529.31
2023-04-18T18:20:31.880Z,100527.75
2023-04-18T18:22:36.144Z,100528.69
2023-04-18T18:24:39.337Z,100520.44
2023-04-18T18:26:42.470Z,100521.06
2023-04-18T18:28:48.073Z,100532.81
2023-04-18T18:30:51.299Z,100533.03
2023-04-18T18:32:54.991Z,100537.38
2023-04-18T18:34:58.230Z,100531.34
2023-04-18T18:37:01.936Z,100534.97
2023-04-18T18:39:06.295Z,100540.12
2023-04-18T18:41:10.220Z,100544.06
2023-04-18T18:43:13.620Z,100543.81
2023-04-18T18:45:20.458Z,100526.34
2023-04-18T18:47:24.987Z,100544.06
2023-04-18T18:49:28.167Z,100543.25
2023-04-18T18:51:31.711Z,100540.31
2023-04-18T18:53:34.746Z,100544.53
2023-04-18T18:55:38.204Z,100535.34
2023-04-18T18:57:41.257Z,100543.44
2023-04-18T18:59:44.516Z,100542.91
2023-04-18T19:01:48.234Z,100545.87
2023-04-18T19:03:51.874Z,100547.16
2023-04-18T19:05:57.216Z,100537.00
2023-04-18T19:08:00.622Z,100552.44
2023-04-18T19:10:05.152Z,100560.84
2023-04-18T19:12:08.848Z,100562.91
2023-04-18T19:14:19.389Z,100567.75
2023-04-18T19:16:21.990Z,100577.72
2023-04-18T19:18:24.609Z,100569.66
2023-04-18T19:20:29.237Z,100593.84
2023-04-18T19:22:32.513Z,100584.25
2023-04-18T19:24:37.744Z,100579.03
2023-04-18T19:26:42.425Z,100581.75
2023-04-18T19:28:45.722Z,100593.31
2023-04-18T19:30:50.977Z,100582.53
2023-04-18T19:32:54.239Z,100583.44
2023-04-18T19:34:57.933Z,100587.03
2023-04-18T19:37:02.360Z,100581.06
2023-04-18T19:39:05.980Z,100582.25
2023-04-18T19:41:10.969Z,100578.00
2023-04-18T19:43:14.255Z,100570.91
2023-04-18T19:45:21.148Z,100577.66
2023-04-18T19:47:24.735Z,100594.72
2023-04-18T19:49:28.307Z,100583.06
2023-04-18T19:51:32.774Z,100590.66
2023-04-18T19:53:36.576Z,100590.72
2023-04-18T19:55:40.217Z,100582.72
2023-04-18T19:57:43.988Z,100590.91
2023-04-18T19:59:48.663Z,100600.53
2023-04-18T20:01:52.508Z,100603.44
2023-04-18T20:03:59.795Z,100588.53
2023-04-18T20:06:25.863Z,100599.81
2023-04-18T20:08:30.999Z,100595.25
2023-04-18T20:10:35.826Z,100606.47
2023-04-18T20:12:39.111Z,100592.13
2023-04-18T20:14:41.953Z,100607.19
2023-04-18T20:16:49.686Z,100608.56
2023-04-18T20:18:54.854Z,100609.84
2023-04-18T20:20:58.343Z,100593.72
2023-04-18T20:23:04.087Z,100596.25
2023-04-18T20:25:07.442Z,100595.19
2023-04-18T20:27:11.058Z,100606.34
2023-04-18T20:29:14.406Z,100605.09
2023-04-18T20:31:18.945Z,100599.94
2023-04-18T20:33:22.777Z,100600.69
2023-04-18T20:35:28.533Z,100592.16
2023-04-18T20:37:37.437Z,100604.03
2023-04-18T20:39:42.180Z,100604.66
2023-04-18T20:41:51.572Z,100595.81
2023-04-18T20:43:54.503Z,100590.97
2023-04-18T20:45:58.082Z,100589.19
2023-04-18T20:48:02.003Z,100593.50
2023-04-18T20:50:07.580Z,100595.22
2023-04-18T20:52:11.958Z,100596.44
2023-04-18T20:54:15.236Z,100600.56
2023-04-18T20:56:17.916Z,100594.03
2023-04-18T20:58:20.809Z,100598.38
2023-04-18T21:00:23.504Z,100602.66
2023-04-18T21:02:26.892Z,100604.25
2023-04-18T21:04:29.694Z,100603.31
2023-04-18T21:06:32.931Z,100578.97
2023-04-18T21:08:35.400Z,100581.62
2023-04-18T21:10:37.870Z,100590.97
2023-04-18T21:12:40.571Z,100594.06
2023-04-18T21:14:42.850Z,100590.25
2023-04-18T21:16:45.202Z,100594.47
2023-04-18T21:18:47.865Z,100587.72
2023-04-18T21:20:50.532Z,100596.69
2023-04-18T21:22:52.912Z,100590.22
2023-04-18T21:24:55.621Z,100583.75
2023-04-18T21:26:57.904Z,100579.00
2023-04-18T21:29:06.743Z,100577.69
2023-04-18T21:31:09.397Z,100577.56
2023-04-18T21:33:11.924Z,100568.53
2023-04-18T21:35:15.023Z,100561.75
2023-04-18T21:37:18.735Z,100560.47
2023-04-18T21:39:21.176Z,100568.38
2023-04-18T21:41:24.100Z,100571.09
2023-04-18T21:43:26.784Z,100562.72
2023-04-18T21:45:29.321Z,100563.56
2023-04-18T21:47:32.438Z,100561.97
2023-04-18T21:49:35.074Z,100558.19
2023-04-18T21:51:37.385Z,100555.16
2023-04-18T21:53:41.016Z,100560.84
2023-04-18T21:55:43.645Z,100552.56
2023-04-18T21:57:45.997Z,100554.16
2023-04-18T21:59:48.264Z,100549.66
2023-04-18T22:01:50.961Z,100546.69
2023-04-18T22:03:53.793Z,100556.34
2023-04-18T22:05:56.704Z,100543.62
2023-04-18T22:07:59.049Z,100550.47
2023-04-18T22:10:03.842Z,100558.00
2023-04-18T22:12:06.191Z,100562.44
2023-04-18T22:14:09.983Z,100556.22
2023-04-18T22:16:12.656Z,100553.03
2023-04-18T22:18:15.193Z,100546.28
2023-04-18T22:20:17.552Z,100549.37
2023-04-18T22:22:20.242Z,100545.00
2023-04-18T22:24:40.672Z,100540.59
2023-04-18T22:26:42.946Z,100547.50
2023-04-18T22:28:45.518Z,100547.97
2023-04-18T22:30:47.795Z,100537.78
2023-04-18T22:32:50.144Z,100535.94
2023-04-18T22:34:52.702Z,100532.28
2023-04-18T22:36:55.201Z,100523.34
2023-04-18T22:38:57.603Z,100523.34
2023-04-18T22:41:00.287Z,100532.84
2023-04-18T22:43:02.614Z,100523.44
2023-04-18T22:45:06.461Z,100515.31
2023-04-18T22:47:09.046Z,100517.66
2023-04-18T22:49:11.299Z,100520.28
2023-04-18T22:51:18.258Z,100512.59
2023-04-18T22:53:21.098Z,100517.78
2023-04-18T22:55:23.507Z,100510.81
2023-04-18T22:57:25.952Z,100507.75
2023-04-18T22:59:28.541Z,100507.66
2023-04-18T23:01:30.902Z,100512.72
2023-04-18T23:03:34.561Z,100510.12
2023-04-18T23:05:37.406Z,100505.63
2023-04-18T23:07:39.677Z,100505.16
2023-04-18T23:09:41.968Z,100501.44
2023-04-18T23:11:44.567Z,100493.56
2023-04-18T23:13:46.936Z,100500.66
2023-04-18T23:15:49.310Z,100490.72
2023-04-18T23:17:53.163Z,100494.31
2023-04-18T23:19:55.478Z,100499.75
2023-04-18T23:21:57.795Z,100492.06
2023-04-18T23:24:00.522Z,100494.06
2023-04-18T23:26:02.773Z,100486.91
2023-04-18T23:28:05.246Z,100486.62
2023-04-18T23:30:08.763Z,100488.41
2023-04-18T23:32:11.145Z,100481.75
2023-04-18T23:34:13.781Z,100479.44
